createdAt,value
2018-08-04T00:03:59.988Z,29.50
2018-08-04T00:09:07.674Z,29.20
2018-08-04T00:14:12.833Z,28.90
2018-08-04T00:19:17.528Z,29.10
2018-08-04T00:24:23.164Z,29.20
2018-08-04T00:29:27.959Z,28.90
2018-08-04T00:34:32.639Z,28.90
2018-08-04T00:39:37.923Z,28.90
2018-08-04T00:49:46.808Z,28.60
2018-08-04T00:59:55.626Z,28.40
2018-08-04T01:05:00.256Z,28.40
2018-08-04T01:10:05.534Z,28.50
2018-08-04T01:15:10.337Z,28.50
2018-08-04T01:20:15.865Z,28.20
2018-08-04T01:25:20.662Z,28.10
2018-08-04T01:30:25.339Z,28.10
2018-08-04T01:35:30.022Z,28.10
2018-08-04T01:40:34.708Z,28.00
2018-08-04T01:45:39.529Z,27.90
2018-08-04T01:50:44.127Z,28.00
2018-08-04T01:55:48.878Z,27.80
2018-08-04T02:00:53.430Z,27.60
2018-08-04T02:05:58.047Z,27.40
2018-08-04T02:11:02.686Z,27.50
2018-08-04T02:16:07.357Z,27.60
2018-08-04T02:21:12.053Z,27.40
2018-08-04T02:26:17.084Z,27.20
2018-08-04T02:31:21.765Z,27.20
2018-08-04T02:36:26.444Z,27.10
2018-08-04T02:41:32.803Z,26.90
2018-08-04T02:46:37.493Z,26.60
2018-08-04T02:51:42.172Z,26.70
2018-08-04T02:56:46.970Z,26.70
2018-08-04T03:06:56.699Z,26.10
2018-08-04T03:12:01.746Z,26.60
2018-08-04T03:17:06.538Z,26.80
2018-08-04T03:22:11.229Z,27.00
2018-08-04T03:27:16.020Z,26.80
2018-08-04T03:32:20.713Z,26.50
2018-08-04T03:37:25.626Z,26.60
2018-08-04T03:42:30.310Z,26.10
2018-08-04T03:47:35.109Z,25.60
2018-08-04T03:52:39.911Z,25.60
2018-08-04T03:57:44.595Z,25.60
2018-08-04T04:02:49.274Z,24.90
2018-08-04T04:07:53.956Z,24.80
2018-08-04T04:12:58.523Z,24.60
2018-08-04T04:18:03.342Z,24.80
2018-08-04T04:23:08.005Z,24.70
2018-08-04T04:28:12.804Z,25.20
2018-08-04T04:33:17.490Z,25.90
2018-08-04T04:43:26.129Z,26.30
2018-08-04T04:48:30.707Z,26.50
2018-08-04T04:53:35.497Z,26.60
2018-08-04T04:58:40.056Z,26.60
2018-08-04T05:03:44.740Z,26.70
2018-08-04T05:08:49.500Z,26.50
2018-08-04T05:13:54.106Z,26.60
2018-08-04T05:18:59.266Z,26.60
2018-08-04T05:24:03.950Z,26.70
2018-08-04T05:29:08.571Z,26.90
2018-08-04T05:34:13.430Z,26.80
2018-08-04T05:39:19.082Z,25.50
2018-08-04T05:44:23.754Z,26.90
2018-08-04T05:49:28.315Z,27.10
2018-08-04T05:54:32.877Z,27.10
2018-08-04T05:59:37.682Z,26.90
2018-08-04T06:04:42.412Z,27.10
2018-08-04T06:09:47.045Z,27.10
2018-08-04T06:14:51.852Z,27.10
2018-08-04T06:19:57.368Z,27.20
2018-08-04T06:25:01.992Z,27.40
2018-08-04T06:30:08.172Z,27.60
2018-08-04T06:35:12.859Z,27.50
2018-08-04T06:40:17.418Z,27.60
2018-08-04T06:45:22.039Z,27.80
2018-08-04T06:50:26.539Z,27.90
2018-08-04T06:55:31.224Z,28.30
2018-08-04T07:00:36.502Z,28.50
2018-08-04T07:05:41.067Z,28.70
2018-08-04T07:10:45.752Z,28.90
2018-08-04T07:15:51.632Z,29.40
2018-08-04T07:31:04.839Z,29.80
2018-08-04T07:36:09.521Z,30.50
2018-08-04T07:41:14.438Z,31.70
2018-08-04T07:46:19.244Z,31.70
2018-08-04T07:51:26.008Z,31.00
2018-08-04T07:56:32.083Z,30.70
2018-08-04T08:01:37.134Z,31.40
2018-08-04T08:06:41.812Z,32.30
2018-08-04T08:11:46.610Z,32.80
2018-08-04T08:17:16.110Z,32.20
2018-08-04T08:22:41.417Z,33.00
2018-08-04T08:27:48.208Z,33.00
2018-08-04T08:32:56.590Z,33.10
2018-08-04T08:38:36.547Z,34.30
2018-08-04T08:48:52.347Z,32.70
2018-08-04T08:53:58.232Z,35.70
2018-08-04T08:59:03.078Z,36.10
2018-08-04T09:04:08.448Z,35.70
2018-08-04T09:09:14.006Z,35.30
2018-08-04T09:14:18.561Z,35.30
2018-08-04T09:19:23.355Z,36.80
2018-08-04T09:24:27.917Z,35.80
2018-08-04T09:34:36.617Z,36.40
2018-08-04T09:39:41.488Z,36.90
2018-08-04T09:44:46.231Z,38.10
2018-08-04T09:49:50.966Z,37.80
2018-08-04T09:54:56.008Z,37.20
2018-08-04T10:00:00.813Z,36.40
2018-08-04T10:05:05.730Z,36.50
2018-08-04T10:10:12.105Z,36.80
2018-08-04T10:15:16.777Z,36.90
2018-08-04T10:20:21.515Z,38.20
2018-08-04T10:25:26.139Z,37.80
2018-08-04T10:30:30.826Z,37.40
2018-08-04T10:35:35.622Z,37.70
2018-08-04T10:40:40.360Z,38.20
2018-08-04T10:45:44.987Z,38.40
2018-08-04T10:55:53.632Z,40.50
2018-08-04T11:00:58.314Z,39.90
2018-08-04T11:06:03.114Z,39.60
2018-08-04T11:11:08.281Z,39.40
2018-08-04T11:16:13.076Z,41.40
2018-08-04T11:21:17.760Z,41.70
2018-08-04T11:26:22.454Z,41.40
2018-08-04T11:31:27.258Z,41.40
2018-08-04T11:36:32.285Z,41.40
2018-08-04T11:41:36.991Z,41.80
2018-08-04T11:46:41.654Z,42.80
2018-08-04T11:51:47.050Z,42.20
2018-08-04T11:56:51.616Z,43.00
2018-08-04T12:01:56.354Z,41.90
2018-08-04T12:07:01.351Z,42.20
2018-08-04T12:12:06.035Z,42.10
2018-08-04T12:17:10.723Z,42.90
2018-08-04T12:22:15.752Z,42.30
2018-08-04T12:27:20.516Z,43.90
2018-08-04T12:32:25.374Z,43.90
2018-08-04T12:37:30.171Z,44.10
2018-08-04T12:42:35.699Z,44.50
2018-08-04T12:47:40.231Z,45.20
2018-08-04T12:52:44.921Z,45.00
2018-08-04T12:57:49.713Z,44.30
2018-08-04T13:02:54.638Z,43.70
2018-08-04T13:08:00.276Z,43.40
2018-08-04T13:18:09.818Z,44.20
2018-08-04T13:23:14.444Z,43.80
2018-08-04T13:28:19.018Z,44.10
2018-08-04T13:33:23.692Z,44.30
2018-08-04T13:38:28.607Z,44.50
2018-08-04T13:43:33.773Z,43.80
2018-08-04T13:48:39.414Z,43.80
2018-08-04T13:58:48.295Z,44.50
2018-08-04T14:03:53.153Z,44.20
2018-08-04T14:08:57.839Z,43.80
2018-08-04T14:14:03.444Z,43.80
2018-08-04T14:19:08.227Z,44.10
2018-08-04T14:24:14.344Z,44.10
2018-08-04T14:29:19.087Z,44.80
2018-08-04T14:34:24.193Z,44.20
2018-08-04T14:39:29.185Z,43.90
2018-08-04T14:44:33.910Z,43.70
2018-08-04T14:49:38.496Z,42.90
2018-08-04T14:54:43.045Z,43.10
2018-08-04T14:59:47.611Z,42.80
2018-08-04T15:04:52.320Z,42.50
2018-08-04T15:09:57.120Z,42.10
2018-08-04T15:15:02.129Z,42.10
2018-08-04T15:20:07.421Z,42.60
2018-08-04T15:25:12.328Z,41.60
2018-08-04T15:30:17.126Z,41.60
2018-08-04T15:35:21.931Z,41.50
2018-08-04T15:40:26.732Z,41.40
2018-08-04T15:50:35.384Z,40.30
2018-08-04T15:55:40.431Z,39.80
2018-08-04T16:00:45.222Z,39.60
2018-08-04T16:05:50.144Z,39.30
2018-08-04T16:10:55.425Z,39.60
2018-08-04T16:16:00.107Z,39.20
2018-08-04T16:21:05.388Z,38.50
2018-08-04T16:26:10.786Z,38.10
2018-08-04T16:31:15.612Z,37.60
2018-08-04T16:36:20.639Z,37.10
2018-08-04T16:41:26.288Z,37.00
2018-08-04T16:46:31.201Z,36.60
2018-08-04T16:51:36.018Z,36.10
2018-08-04T16:56:40.937Z,35.70
2018-08-04T17:01:45.727Z,35.20
2018-08-04T17:06:50.584Z,34.90
2018-08-04T17:11:55.460Z,34.50
2018-08-04T17:17:00.124Z,34.10
2018-08-04T17:22:05.106Z,33.90
2018-08-04T17:27:10.095Z,33.60
2018-08-04T17:32:15.016Z,33.30
2018-08-04T17:37:19.866Z,33.10
2018-08-04T17:42:24.854Z,33.00
2018-08-04T17:47:29.669Z,32.90
2018-08-04T17:52:34.460Z,33.00
2018-08-04T17:57:39.264Z,32.70
2018-08-04T18:02:44.439Z,32.50
2018-08-04T18:07:49.364Z,32.50
2018-08-04T18:12:54.267Z,32.30
2018-08-04T18:17:59.195Z,32.10
2018-08-04T18:23:03.989Z,32.00
2018-08-04T18:28:08.672Z,31.80
2018-08-04T18:33:13.477Z,31.60
2018-08-04T18:38:18.275Z,31.40
2018-08-04T18:43:23.196Z,31.30
2018-08-04T18:48:27.998Z,30.90
2018-08-04T18:53:32.677Z,30.70
2018-08-04T18:58:38.002Z,30.50
2018-08-04T19:03:42.898Z,30.30
2018-08-04T19:08:47.564Z,30.00
2018-08-04T19:13:52.486Z,29.80
2018-08-04T19:18:57.171Z,29.50
2018-08-04T19:24:01.979Z,29.40
2018-08-04T19:29:06.654Z,29.40
2018-08-04T19:34:11.340Z,29.30
2018-08-04T19:39:16.078Z,29.20
2018-08-04T19:44:20.941Z,29.20
2018-08-04T19:49:26.219Z,29.00
2018-08-04T19:54:30.901Z,29.00
2018-08-04T19:59:35.586Z,28.70
2018-08-04T20:04:40.081Z,28.60
2018-08-04T20:09:45.196Z,28.60
2018-08-04T20:14:50.866Z,28.50
2018-08-04T20:19:55.869Z,28.60
2018-08-04T20:25:00.800Z,28.50
2018-08-04T20:35:10.397Z,28.00
2018-08-04T20:40:15.315Z,28.00
2018-08-04T20:45:20.378Z,28.00
2018-08-04T20:50:25.042Z,28.00
2018-08-04T20:55:29.843Z,27.90
2018-08-04T21:00:38.962Z,27.70
2018-08-04T21:05:43.764Z,27.70
2018-08-04T21:10:48.812Z,27.40
2018-08-04T21:15:53.745Z,27.50
2018-08-04T21:20:58.656Z,27.20
2018-08-04T21:26:03.336Z,27.20
2018-08-04T21:31:08.857Z,27.20
2018-08-04T21:36:13.539Z,27.20
2018-08-04T22:27:36.012Z,26.90
2018-08-04T22:32:41.519Z,26.50
2018-08-04T22:37:47.410Z,26.30
2018-08-04T22:42:52.200Z,26.10
2018-08-04T22:47:57.060Z,26.00
2018-08-04T22:53:01.837Z,25.90
2018-08-04T22:58:06.726Z,25.90
2018-08-04T23:03:12.380Z,25.90
2018-08-04T23:08:17.058Z,25.70
2018-08-04T23:13:21.860Z,25.80
2018-08-04T23:18:26.656Z,25.70
2018-08-04T23:23:32.177Z,25.60
2018-08-04T23:28:37.102Z,25.60
2018-08-04T23:38:46.704Z,25.40
2018-08-04T23:43:52.825Z,25.30
2018-08-04T23:48:57.512Z,25.20
2018-08-04T23:54:02.307Z,25.20
2018-08-04T23:59:07.356Z,25.20
